Time;durP1;ratioP1;P1;durP2;ratioP2;P2;SDS_P1;SDS_P2;PMS_P1;PMS_P2;Temp;Humidity;BMP_temperature;BMP_pressure;BME280_temperature;BME280_humidity;BME280_pressure;Samples;Min_cycle;Max_cycle;Signal;HPM_P1;HPM_P2
2021/12/22 00:01:14;;;;;;;12.21;6.93;;;;;;;-3.16;85.42;100144.72;1981938;79;21342;-72
2021/12/22 00:04:24;;;;;;;11.02;6.37;;;;;;;-3.23;85.47;100143.47;1982583;81;20184;-72
2021/12/22 00:07:27;;;;;;;13.64;6.08;;;;;;;-3.23;85.62;100140.94;1978850;81;20189;-72
2021/12/22 00:10:30;;;;;;;9.68;6.81;;;;;;;-3.27;85.42;100143.19;1982588;82;20266;-72
2021/12/22 00:13:33;;;;;;;9.66;6.11;;;;;;;-3.38;85.63;100142.53;1982718;81;20795;-72
2021/12/22 00:16:35;;;;;;;10.01;5.64;;;;;;;-3.40;85.86;100137.34;1980584;81;22834;-73
2021/12/22 00:19:38;;;;;;;9.72;5.76;;;;;;;-3.40;85.85;100139.91;1982662;81;20314;-72
2021/12/22 00:22:42;;;;;;;10.29;6.33;;;;;;;-3.42;85.73;100146.50;1982525;81;20233;-72
2021/12/22 00:25:44;;;;;;;9.61;5.39;;;;;;;-3.45;85.71;100146.31;1982446;81;20208;-72
2021/12/22 00:28:48;;;;;;;10.53;6.41;;;;;;;-3.51;85.65;100145.94;1982780;81;20270;-72
2021/12/22 00:32:08;;;;;;;11.76;6.07;;;;;;;-3.53;86.00;100136.47;1980737;79;21879;-72
2021/12/22 00:35:24;;;;;;;10.24;5.93;;;;;;;-3.57;86.27;100132.00;2029774;71;20188;-75
2021/12/22 00:38:26;;;;;;;10.61;5.81;;;;;;;-3.58;86.58;100136.19;1987219;81;20266;-75
2021/12/22 00:41:29;;;;;;;10.47;7.13;;;;;;;-3.57;86.61;100135.41;1987482;81;20824;-75
2021/12/22 00:44:32;;;;;;;10.08;6.32;;;;;;;-3.57;86.87;100135.41;1985867;81;20210;-74
2021/12/22 00:47:35;;;;;;;10.36;6.64;;;;;;;-3.54;87.08;100132.19;1989306;79;20717;-74
2021/12/22 00:50:39;;;;;;;8.43;5.70;;;;;;;-3.55;87.17;100125.34;1989049;81;20182;-74
2021/12/22 00:53:42;;;;;;;13.97;6.49;;;;;;;-3.56;86.94;100128.69;1992747;81;21102;-74
2021/12/22 00:56:44;;;;;;;11.54;6.50;;;;;;;-3.57;86.93;100130.34;1991242;81;20179;-74
2021/12/22 00:59:48;;;;;;;9.54;6.23;;;;;;;-3.56;87.11;100143.91;1991654;81;20179;-74
2021/12/22 01:02:50;;;;;;;9.80;5.97;;;;;;;-3.56;87.04;100152.41;1990400;79;23035;-75
2021/12/22 01:05:53;;;;;;;8.67;5.02;;;;;;;-3.57;86.92;100159.91;1992246;81;20323;-74
2021/12/22 01:08:56;;;;;;;11.37;5.96;;;;;;;-3.54;86.91;100166.06;1991734;81;20183;-74
2021/12/22 01:11:59;;;;;;;9.52;5.63;;;;;;;-3.50;86.89;100155.31;1991554;81;20187;-74
2021/12/22 01:15:03;;;;;;;10.49;5.38;;;;;;;-3.46;86.73;100151.31;1991015;81;21253;-75
2021/12/22 01:18:13;;;;;;;12.64;6.11;;;;;;;-3.47;86.58;100147.00;1991622;78;22989;-74
2021/12/22 01:21:23;;;;;;;7.19;5.28;;;;;;;-3.45;87.07;100155.59;1992046;81;21133;-74
2021/12/22 01:24:33;;;;;;;11.03;6.08;;;;;;;-3.43;87.32;100154.03;1991542;81;20644;-74
2021/12/22 01:27:40;;;;;;;9.93;6.29;;;;;;;-3.37;87.60;100149.34;1991800;81;20261;-75
2021/12/22 01:30:46;;;;;;;9.83;6.03;;;;;;;-3.38;87.48;100153.56;1990045;79;20667;-74
2021/12/22 01:33:49;;;;;;;11.44;7.12;;;;;;;-3.33;87.72;100160.56;1991644;81;20889;-74
2021/12/22 01:36:52;;;;;;;11.81;6.76;;;;;;;-3.30;87.64;100160.75;1991538;81;20222;-74
2021/12/22 01:39:55;;;;;;;13.02;6.53;;;;;;;-3.27;87.75;100159.28;1991823;81;20183;-74
2021/12/22 01:42:58;;;;;;;11.64;6.44;;;;;;;-3.28;87.44;100160.06;1991543;81;20187;-74
2021/12/22 01:49:11;;;;;;;11.16;6.19;;;;;;;-3.35;86.59;100160.47;1992112;81;21326;-74
2021/12/22 01:52:13;;;;;;;12.18;6.28;;;;;;;-3.44;86.32;100162.44;1991885;81;20214;-74
2021/12/22 01:55:31;;;;;;;10.79;6.49;;;;;;;-3.50;86.31;100155.31;1991437;81;20167;-74
2021/12/22 01:58:37;;;;;;;9.69;6.42;;;;;;;-3.53;86.16;100152.59;1991611;81;20889;-74
2021/12/22 02:01:41;;;;;;;9.83;6.20;;;;;;;-3.59;85.79;100151.31;1989613;79;22205;-75
2021/12/22 02:04:44;;;;;;;8.64;6.06;;;;;;;-3.64;85.74;100151.00;1991550;81;20215;-74
2021/12/22 02:07:49;;;;;;;15.11;8.01;;;;;;;-3.65;85.68;100151.81;1991255;81;20896;-75
2021/12/22 02:10:51;;;;;;;11.56;6.12;;;;;;;-3.71;85.75;100147.22;1991769;81;20187;-74
2021/12/22 02:13:59;;;;;;;11.32;6.50;;;;;;;-3.72;86.15;100142.94;1991743;81;20623;-74
2021/12/22 02:17:07;;;;;;;10.01;6.40;;;;;;;-3.75;86.45;100145.28;1993047;79;20695;-74
2021/12/22 02:20:11;;;;;;;11.80;7.04;;;;;;;-3.81;86.31;100154.13;1991782;81;20206;-74
2021/12/22 02:23:14;;;;;;;11.81;6.79;;;;;;;-3.84;86.61;100152.28;1991212;81;20931;-74
2021/12/22 02:26:22;;;;;;;12.01;7.12;;;;;;;-3.84;86.88;100146.31;1991553;81;20258;-74
2021/12/22 02:29:34;;;;;;;9.63;7.29;;;;;;;-3.88;87.08;100142.72;1992128;81;20967;-74
2021/12/22 02:33:07;;;;;;;11.42;6.56;;;;;;;-3.86;87.56;100133.56;1990010;79;21135;-74
2021/12/22 02:39:07;;;;;;;10.62;7.20;;;;;;;-3.86;87.76;100122.53;1987191;81;20203;-74
2021/12/22 02:42:12;;;;;;;9.63;6.71;;;;;;;-3.83;87.78;100125.25;1987162;81;20658;-74
2021/12/22 02:45:18;;;;;;;8.77;6.43;;;;;;;-3.78;87.79;100116.28;1985669;81;20208;-74
2021/12/22 02:48:23;;;;;;;9.64;6.26;;;;;;;-3.76;87.55;100118.16;1987329;81;20215;-74
2021/12/22 02:51:30;;;;;;;9.10;6.11;;;;;;;-3.76;87.40;100120.69;1987127;81;20201;-74
2021/12/22 02:54:40;;;;;;;11.09;6.64;;;;;;;-3.70;87.43;100117.66;1986920;81;21061;-74
2021/12/22 02:57:47;;;;;;;10.03;6.78;;;;;;;-3.66;87.44;100110.31;1986973;81;20184;-74
2021/12/22 03:01:10;;;;;;;9.60;6.19;;;;;;;-3.63;87.29;100108.75;1985661;79;20401;-74
2021/12/22 03:04:20;;;;;;;12.20;6.28;;;;;;;-3.62;87.23;100110.50;1989215;81;20241;-74
2021/12/22 03:07:27;;;;;;;11.48;6.64;;;;;;;-3.62;87.00;100105.44;1988452;81;20227;-74
2021/12/22 03:10:30;;;;;;;10.38;6.51;;;;;;;-3.61;86.74;100114.81;1989254;81;20195;-74
2021/12/22 03:13:32;;;;;;;8.86;6.50;;;;;;;-3.55;87.12;100115.22;1988331;81;20258;-74
2021/12/22 03:16:35;;;;;;;12.52;7.20;;;;;;;-3.50;87.20;100111.28;1986435;79;22177;-74
2021/12/22 03:19:38;;;;;;;9.81;6.86;;;;;;;-3.45;87.28;100110.78;1988181;81;20192;-74
2021/12/22 03:22:44;;;;;;;15.22;6.58;;;;;;;-3.44;86.99;100119.28;1988665;81;20267;-74
2021/12/22 03:25:46;;;;;;;7.96;6.37;;;;;;;-3.43;86.83;100126.09;1988412;81;20311;-74
2021/12/22 03:28:50;;;;;;;9.06;6.29;;;;;;;-3.48;86.41;100130.91;1988494;81;20176;-74
2021/12/22 03:31:53;;;;;;;10.98;7.10;;;;;;;-3.51;86.44;100132.38;1986919;79;21040;-74
2021/12/22 03:34:56;;;;;;;10.22;6.67;;;;;;;-3.52;86.46;100130.63;1990444;81;20187;-74
2021/12/22 03:37:59;;;;;;;12.13;6.46;;;;;;;-3.51;86.48;100133.25;1994165;81;20654;-74
2021/12/22 03:41:03;;;;;;;10.10;6.64;;;;;;;-3.55;86.27;100126.22;1993403;81;20171;-74
2021/12/22 03:44:08;;;;;;;13.90;7.47;;;;;;;-3.53;86.34;100132.28;1993481;81;20236;-74
2021/12/22 03:47:11;;;;;;;10.63;6.74;;;;;;;-3.49;86.41;100128.28;1991659;79;23677;-74
2021/12/22 03:50:15;;;;;;;9.20;6.64;;;;;;;-3.46;86.57;100125.91;1993231;81;20209;-74
2021/12/22 03:53:18;;;;;;;10.79;7.21;;;;;;;-3.43;86.49;100126.09;1993697;81;20241;-75
2021/12/22 03:56:21;;;;;;;9.54;6.42;;;;;;;-3.40;86.56;100127.19;1993519;81;20237;-74
2021/12/22 03:59:24;;;;;;;12.97;6.69;;;;;;;-3.40;86.36;100113.63;1993786;81;20191;-74
2021/12/22 04:02:28;;;;;;;8.44;6.12;;;;;;;-3.43;86.06;100109.22;1991722;78;20300;-74
2021/12/22 04:05:31;;;;;;;10.89;6.82;;;;;;;-3.49;85.60;100116.47;1992788;81;20179;-74
2021/12/22 04:08:33;;;;;;;9.54;6.62;;;;;;;-3.56;85.30;100113.47;1991780;81;20626;-74
2021/12/22 04:11:36;;;;;;;9.96;6.91;;;;;;;-3.58;85.25;100117.56;1991932;81;20167;-74
2021/12/22 04:14:39;;;;;;;9.38;6.79;;;;;;;-3.62;85.17;100119.00;1992110;81;20199;-74
2021/12/22 04:17:42;;;;;;;10.34;6.92;;;;;;;-3.67;85.15;100113.63;1986318;79;22489;-74
2021/12/22 04:20:46;;;;;;;11.16;7.18;;;;;;;-3.67;85.19;100107.69;1991407;81;20192;-74
2021/12/22 04:23:48;;;;;;;12.22;6.56;;;;;;;-3.72;84.95;100117.56;1991540;81;20272;-74
2021/12/22 04:26:51;;;;;;;12.22;6.78;;;;;;;-3.75;85.06;100108.88;1992207;81;20190;-74
2021/12/22 04:29:54;;;;;;;10.60;7.38;;;;;;;-3.72;85.53;100109.94;1991834;81;20672;-74
2021/12/22 04:32:57;;;;;;;9.28;6.58;;;;;;;-3.70;85.73;100117.66;1990389;78;21967;-74
2021/12/22 04:35:59;;;;;;;11.91;6.43;;;;;;;-3.73;85.59;100122.53;1991409;81;20287;-74
2021/12/22 04:39:03;;;;;;;11.23;7.38;;;;;;;-3.77;85.63;100115.50;1992069;81;20213;-74
2021/12/22 04:42:06;;;;;;;9.88;6.83;;;;;;;-3.77;85.66;100121.47;1991717;81;20305;-74
2021/12/22 04:45:11;;;;;;;11.14;7.59;;;;;;;-3.76;85.65;100113.06;1990107;81;20209;-74
2021/12/22 04:48:14;;;;;;;10.49;7.34;;;;;;;-3.74;85.91;100110.63;1987874;79;29507;-74
2021/12/22 04:51:26;;;;;;;10.61;7.82;;;;;;;-3.77;85.83;100118.03;1991971;81;20353;-74
2021/12/22 04:54:31;;;;;;;9.00;6.72;;;;;;;-3.79;85.90;100120.47;1991856;81;20212;-74
2021/12/22 04:57:34;;;;;;;11.93;7.91;;;;;;;-3.83;85.57;100115.09;1991996;81;20180;-74
2021/12/22 05:00:38;;;;;;;12.19;7.50;;;;;;;-3.80;85.92;100118.72;1986378;79;21573;-74
2021/12/22 05:03:41;;;;;;;11.30;8.16;;;;;;;-3.74;86.15;100123.31;1990586;81;20167;-74
2021/12/22 05:06:44;;;;;;;10.22;7.32;;;;;;;-3.71;86.20;100113.34;1990507;81;20171;-74
2021/12/22 05:09:47;;;;;;;13.20;7.33;;;;;;;-3.71;86.24;100114.25;1990275;81;20236;-74
2021/12/22 05:12:51;;;;;;;10.38;7.73;;;;;;;-3.70;86.20;100126.13;1990653;81;20187;-74
2021/12/22 05:15:53;;;;;;;13.81;8.11;;;;;;;-3.70;86.13;100126.13;1988156;78;20269;-74
2021/12/22 05:21:58;;;;;;;11.38;8.02;;;;;;;-3.69;86.07;100125.34;1989539;81;20179;-74
2021/12/22 05:25:04;;;;;;;12.87;7.97;;;;;;;-3.66;86.20;100124.66;1990050;81;21044;-74
2021/12/22 05:28:07;;;;;;;17.00;7.74;;;;;;;-3.63;86.20;100134.13;1990304;81;20303;-74
2021/12/22 05:31:09;;;;;;;11.67;7.73;;;;;;;-3.68;85.90;100134.72;1988240;79;22130;-74
2021/12/22 05:34:12;;;;;;;14.38;8.70;;;;;;;-3.72;85.60;100134.44;1990112;81;20226;-74
2021/12/22 05:37:15;;;;;;;14.48;8.27;;;;;;;-3.76;85.74;100140.09;1990735;81;20195;-75
2021/12/22 05:40:18;;;;;;;13.61;8.76;;;;;;;-3.75;85.81;100136.78;1990241;81;20272;-74
2021/12/22 05:43:21;;;;;;;10.39;7.58;;;;;;;-3.73;85.92;100137.75;1989809;81;20228;-74
2021/12/22 05:46:23;;;;;;;10.96;7.46;;;;;;;-3.74;85.89;100130.94;1988814;79;21587;-74
2021/12/22 05:49:26;;;;;;;11.23;7.04;;;;;;;-3.74;85.83;100125.84;1990047;81;20724;-74
2021/12/22 05:52:29;;;;;;;11.90;8.06;;;;;;;-3.73;85.93;100127.59;1989541;81;20179;-74
2021/12/22 05:55:32;;;;;;;11.63;8.03;;;;;;;-3.72;85.96;100117.56;1990538;81;20179;-74
2021/12/22 05:58:35;;;;;;;12.58;7.98;;;;;;;-3.70;86.08;100122.72;1989996;81;20203;-74
2021/12/22 06:01:37;;;;;;;10.84;7.20;;;;;;;-3.73;86.04;100125.06;1989324;79;22558;-74
2021/12/22 06:04:40;;;;;;;12.92;7.87;;;;;;;-3.73;86.07;100137.75;1989673;81;20220;-74
2021/12/22 06:07:42;;;;;;;12.62;7.86;;;;;;;-3.76;86.02;100140.97;1989310;81;20194;-74
2021/12/22 06:10:45;;;;;;;10.29;7.61;;;;;;;-3.81;85.91;100133.84;1990081;81;20208;-74
2021/12/22 06:13:48;;;;;;;12.77;8.11;;;;;;;-3.84;85.78;100132.00;1991204;81;20264;-74
2021/12/22 06:16:50;;;;;;;13.36;7.99;;;;;;;-3.90;85.71;100123.13;1988809;78;21270;-74
2021/12/22 06:19:53;;;;;;;12.74;8.73;;;;;;;-3.88;85.90;100137.66;1991392;81;20215;-74
2021/12/22 06:22:56;;;;;;;11.18;8.17;;;;;;;-3.85;86.05;100142.91;1990617;81;20202;-74
2021/12/22 06:26:01;;;;;;;11.17;7.99;;;;;;;-3.86;85.93;100152.97;1991103;81;20336;-74
2021/12/22 06:29:03;;;;;;;13.16;7.59;;;;;;;-3.85;85.99;100148.00;1990580;81;20803;-74
2021/12/22 06:32:07;;;;;;;11.38;7.98;;;;;;;-3.83;85.99;100160.78;1988106;78;51365;-74
2021/12/22 06:35:10;;;;;;;11.68;8.00;;;;;;;-3.84;86.01;100164.97;1990065;81;21082;-74
2021/12/22 06:38:14;;;;;;;13.26;7.71;;;;;;;-3.81;86.28;100165.16;1986546;81;20222;-74
2021/12/22 06:41:16;;;;;;;10.10;7.70;;;;;;;-3.77;86.56;100158.63;1990926;81;20233;-73
2021/12/22 06:44:19;;;;;;;11.76;8.67;;;;;;;-3.74;86.64;100152.09;1990767;81;20236;-74
2021/12/22 06:47:22;;;;;;;10.10;7.37;;;;;;;-3.72;86.64;100152.19;1988992;79;45250;-74
2021/12/22 06:50:25;;;;;;;15.53;8.19;;;;;;;-3.74;86.47;100147.03;1990455;81;20194;-74
2021/12/22 06:53:31;;;;;;;12.33;7.90;;;;;;;-3.73;86.54;100156.41;1990832;81;20760;-74
2021/12/22 06:56:33;;;;;;;13.53;8.04;;;;;;;-3.70;86.59;100154.06;1990637;81;20649;-74
2021/12/22 06:59:36;;;;;;;11.61;8.79;;;;;;;-3.71;86.36;100154.84;1989892;81;20658;-74
2021/12/22 07:02:40;;;;;;;9.81;7.50;;;;;;;-3.73;86.31;100156.41;1990981;78;21121;-74
2021/12/22 07:05:43;;;;;;;12.54;7.81;;;;;;;-3.75;86.26;100155.44;1991282;81;20315;-74
2021/12/22 07:08:45;;;;;;;13.24;8.77;;;;;;;-3.76;86.25;100161.28;1990618;81;20217;-74
2021/12/22 07:11:48;;;;;;;12.36;7.94;;;;;;;-3.75;86.38;100155.44;1990134;81;20276;-74
2021/12/22 07:14:51;;;;;;;14.63;8.62;;;;;;;-3.73;86.35;100158.06;1989405;81;20227;-74
2021/12/22 07:17:53;;;;;;;10.62;7.54;;;;;;;-3.73;86.29;100147.91;1988426;79;22286;-74
2021/12/22 07:20:56;;;;;;;13.74;7.84;;;;;;;-3.79;85.91;100145.84;1989298;81;20180;-74
2021/12/22 07:23:58;;;;;;;12.62;7.92;;;;;;;-3.82;85.82;100140.56;1989395;81;20281;-73
2021/12/22 07:27:02;;;;;;;11.61;8.42;;;;;;;-3.82;85.94;100147.31;1989164;81;20219;-74
2021/12/22 07:30:06;;;;;;;11.64;8.76;;;;;;;-3.80;86.03;100153.34;1989210;81;20167;-76
2021/12/22 07:33:08;;;;;;;12.61;7.64;;;;;;;-3.80;86.08;100164.38;1989301;78;22926;-74
2021/12/22 07:36:11;;;;;;;12.46;8.61;;;;;;;-3.77;86.25;100161.16;1987762;81;20771;-74
2021/12/22 07:39:14;;;;;;;11.02;8.08;;;;;;;-3.77;86.33;100159.53;1989132;81;20159;-74
2021/12/22 07:42:16;;;;;;;11.06;8.03;;;;;;;-3.75;86.30;100168.09;1988167;81;20199;-74
2021/12/22 07:45:19;;;;;;;14.02;9.08;;;;;;;-3.75;86.14;100162.16;1987492;81;20211;-74
2021/12/22 07:48:22;;;;;;;12.22;7.96;;;;;;;-3.79;85.94;100161.06;1989212;79;21419;-74
2021/12/22 07:51:30;;;;;;;13.27;8.16;;;;;;;-3.81;85.80;100164.28;1990162;81;20209;-77
2021/12/22 07:54:33;;;;;;;12.74;8.26;;;;;;;-3.83;85.86;100163.31;1983437;81;20195;-74
2021/12/22 07:57:36;;;;;;;17.41;8.91;;;;;;;-3.81;85.87;100161.75;1989037;81;20632;-74
2021/12/22 08:00:39;;;;;;;12.88;8.34;;;;;;;-3.81;85.94;100167.69;1986753;79;22107;-74
2021/12/22 08:03:42;;;;;;;14.18;8.54;;;;;;;-3.83;85.79;100168.38;1988886;81;20191;-74
2021/12/22 08:06:45;;;;;;;12.42;9.43;;;;;;;-3.89;85.70;100175.59;1988705;81;20191;-74
2021/12/22 08:09:48;;;;;;;15.26;9.54;;;;;;;-3.91;85.74;100172.97;1990135;81;20175;-73
2021/12/22 08:12:51;;;;;;;15.81;9.30;;;;;;;-3.88;86.02;100170.63;1989573;81;20329;-74
2021/12/22 08:15:54;;;;;;;16.12;9.90;;;;;;;-3.80;86.07;100168.56;1988295;78;20768;-74
2021/12/22 08:18:56;;;;;;;13.44;8.80;;;;;;;-3.74;86.01;100172.41;1989745;81;20208;-74
2021/12/22 08:21:59;;;;;;;14.07;9.12;;;;;;;-3.65;85.96;100174.63;1990035;81;20221;-74
2021/12/22 08:25:03;;;;;;;14.18;9.09;;;;;;;-3.59;85.94;100176.69;1988986;81;20315;-74
2021/12/22 08:28:06;;;;;;;12.98;8.88;;;;;;;-3.51;86.01;100170.44;1988653;81;20211;-73
2021/12/22 08:31:08;;;;;;;13.43;9.60;;;;;;;-3.39;86.15;100169.56;1986752;79;50074;-74
2021/12/22 08:34:15;;;;;;;11.14;8.92;;;;;;;-3.17;86.27;100179.41;1988046;81;20197;-74
2021/12/22 08:40:40;;;;;;;11.68;8.63;;;;;;;-2.65;85.93;100174.97;1988980;81;20273;-75
2021/12/22 08:43:42;;;;;;;14.37;9.03;;;;;;;-2.35;85.71;100191.16;1989017;81;20187;-74
2021/12/22 08:46:50;;;;;;;12.39;8.70;;;;;;;-2.12;85.03;100195.09;1987607;78;24075;-74
2021/12/22 08:49:53;;;;;;;14.04;9.48;;;;;;;-1.97;84.01;100198.53;1992600;81;20226;-73
2021/12/22 08:52:56;;;;;;;11.60;8.94;;;;;;;-1.83;83.35;100187.44;1988902;81;20244;-74
2021/12/22 08:55:58;;;;;;;11.89;8.58;;;;;;;-1.70;82.69;100176.31;1988806;81;20253;-74
2021/12/22 08:59:04;;;;;;;12.29;8.46;;;;;;;-1.54;82.19;100184.03;1988473;81;20260;-74
2021/12/22 09:02:08;;;;;;;13.30;8.60;;;;;;;-1.38;81.58;100174.69;1986874;79;21428;-74
2021/12/22 09:05:12;;;;;;;12.27;8.29;;;;;;;-1.27;80.89;100171.94;1989105;81;20217;-74
2021/12/22 09:08:14;;;;;;;12.41;8.79;;;;;;;-1.14;80.44;100164.97;1988819;81;20256;-74
2021/12/22 09:11:17;;;;;;;10.00;8.03;;;;;;;-1.02;79.93;100158.88;1990643;81;20179;-74
2021/12/22 09:14:21;;;;;;;11.87;8.68;;;;;;;-0.93;79.48;100164.44;1989580;81;20204;-75
2021/12/22 09:17:23;;;;;;;12.51;8.54;;;;;;;-0.80;78.95;100170.19;1987194;78;20732;-75
2021/12/22 09:20:28;;;;;;;13.57;8.49;;;;;;;-0.84;78.21;100165.75;1988792;81;20179;-74
2021/12/22 09:23:31;;;;;;;13.33;8.54;;;;;;;-0.75;78.25;100174.72;1987916;81;20220;-75
2021/12/22 09:26:35;;;;;;;14.18;8.93;;;;;;;-0.62;77.92;100177.13;1986967;81;20222;-75
2021/12/22 09:29:39;;;;;;;13.30;8.91;;;;;;;-0.54;77.64;100174.09;1988078;81;20231;-74
2021/12/22 09:32:42;;;;;;;13.13;8.86;;;;;;;-0.38;77.32;100171.56;1987838;78;21224;-75
2021/12/22 09:35:48;;;;;;;13.56;8.82;;;;;;;-0.22;76.88;100170.66;1989668;81;20259;-75
2021/12/22 09:38:51;;;;;;;12.43;8.66;;;;;;;-0.15;76.47;100155.75;1989663;81;21212;-75
2021/12/22 09:41:54;;;;;;;11.73;8.93;;;;;;;0.03;75.92;100152.38;1989127;81;20191;-75
2021/12/22 09:45:00;;;;;;;11.57;8.71;;;;;;;0.06;75.66;100144.84;1985073;81;20191;-75
2021/12/22 09:54:13;;;;;;;12.14;8.25;;;;;;;0.45;74.30;100134.00;1977380;82;20243;-75
2021/12/22 09:57:17;;;;;;;12.32;8.19;;;;;;;0.50;73.58;100129.97;1977228;82;20349;-75
2021/12/22 10:00:20;;;;;;;13.06;8.63;;;;;;;0.55;73.34;100126.00;1976004;81;20354;-75
2021/12/22 10:03:24;;;;;;;10.34;8.07;;;;;;;0.62;73.27;100123.72;1977111;82;20341;-75
2021/12/22 10:06:27;;;;;;;11.37;8.62;;;;;;;0.60;72.91;100119.41;1977479;82;20364;-75
2021/12/22 10:09:31;;;;;;;15.77;8.74;;;;;;;0.56;72.54;100125.19;1976368;82;20192;-76
2021/12/22 10:12:35;;;;;;;11.88;8.66;;;;;;;0.40;72.83;100117.59;1980128;81;20333;-75
2021/12/22 10:15:38;;;;;;;11.03;8.73;;;;;;;0.24;73.15;100117.66;1974485;79;22677;-75
2021/12/22 10:18:41;;;;;;;11.32;8.56;;;;;;;0.12;73.68;100117.06;1976924;82;20334;-75
2021/12/22 10:22:10;;;;;;;11.65;8.79;;;;;;;0.01;73.95;100113.13;1978032;82;20340;-75
2021/12/22 10:25:21;;;;;;;11.74;8.78;;;;;;;-0.08;74.35;100121.19;1977661;82;20337;-75
2021/12/22 10:28:25;;;;;;;13.59;9.06;;;;;;;-0.16;74.54;100117.41;1974601;82;20234;-75
2021/12/22 10:31:40;;;;;;;11.69;8.95;;;;;;;-0.22;74.38;100112.84;1981188;79;21113;-75
2021/12/22 10:35:02;;;;;;;12.88;9.50;;;;;;;-0.23;74.87;100110.22;1988236;81;20368;-76
2021/12/22 10:38:07;;;;;;;12.66;8.25;;;;;;;-0.18;75.01;100111.31;1988605;81;20230;-76
2021/12/22 10:41:11;;;;;;;11.91;8.99;;;;;;;-0.15;74.90;100108.94;1988942;81;20362;-76
2021/12/22 10:44:14;;;;;;;10.64;9.13;;;;;;;-0.21;74.27;100103.50;1984181;81;20191;-76
2021/12/22 10:47:23;;;;;;;12.52;8.67;;;;;;;-0.21;74.30;100101.84;1987126;79;22418;-76
2021/12/22 10:50:26;;;;;;;12.94;8.85;;;;;;;-0.20;74.58;100093.38;1988936;81;20210;-75
2021/12/22 10:53:28;;;;;;;14.82;9.29;;;;;;;-0.19;74.55;100090.03;1988909;81;20713;-76
2021/12/22 10:56:34;;;;;;;10.26;8.97;;;;;;;-0.14;74.57;100091.16;1988637;81;20711;-76
2021/12/22 10:59:42;;;;;;;12.59;9.29;;;;;;;-0.09;74.45;100088.81;1986174;81;20277;-76
2021/12/22 11:03:00;;;;;;;;;;;;;;;-0.07;74.01;100082.09;1988302;78;21629;-76
2021/12/22 11:06:12;;;;;;;12.20;8.80;;;;;;;-0.06;73.74;100081.31;1991533;81;20075;-76
2021/12/22 11:09:16;;;;;;;11.57;9.09;;;;;;;0.02;73.89;100074.03;1989632;81;20203;-76
2021/12/22 11:12:36;;;;;;;18.36;9.86;;;;;;;0.07;74.02;100082.78;1991795;81;20182;-78
2021/12/22 11:15:43;;;;;;;10.63;8.45;;;;;;;0.13;73.89;100071.19;1988313;78;22784;-76
2021/12/22 11:18:46;;;;;;;12.04;9.02;;;;;;;0.16;73.42;100070.44;1991887;81;20411;-76
2021/12/22 11:22:00;;;;;;;13.62;8.68;;;;;;;0.19;73.48;100073.16;1990575;81;20378;-76
2021/12/22 11:25:05;;;;;;;9.68;8.03;;;;;;;0.25;73.77;100056.44;1990320;81;20244;-77
2021/12/22 11:28:14;;;;;;;11.65;8.40;;;;;;;0.26;73.22;100054.78;1990682;81;20211;-77
2021/12/22 11:31:17;;;;;;;10.48;9.07;;;;;;;0.28;72.80;100041.25;1990100;79;24007;-77
2021/12/22 11:34:21;;;;;;;11.16;8.40;;;;;;;0.33;72.59;100049.13;1990757;81;20450;-76
2021/12/22 11:37:25;;;;;;;14.34;8.76;;;;;;;0.39;72.50;100044.34;1989753;81;20335;-76
2021/12/22 11:40:28;;;;;;;11.75;8.82;;;;;;;0.41;72.01;100042.72;1989875;81;20460;-76
2021/12/22 11:43:30;;;;;;;10.43;8.56;;;;;;;0.48;72.15;100037.06;1989981;81;20370;-76
2021/12/22 11:46:34;;;;;;;11.46;9.20;;;;;;;0.49;71.67;100036.25;1987897;78;21720;-76
2021/12/22 11:49:58;;;;;;;10.18;8.26;;;;;;;0.51;71.70;100031.22;1991333;81;20319;-76
2021/12/22 11:53:03;;;;;;;10.65;8.49;;;;;;;0.55;71.41;100020.38;1991656;81;20260;-76
2021/12/22 11:56:06;;;;;;;9.59;8.50;;;;;;;0.60;71.28;100021.44;1991012;81;20346;-76
2021/12/22 11:59:41;;;;;;;13.26;8.80;;;;;;;0.67;71.26;100022.56;1991462;81;20469;-76
2021/12/22 12:02:43;;;;;;;11.21;8.68;;;;;;;0.72;71.25;100026.19;1980091;79;22313;-76
2021/12/22 12:06:12;;;;;;;10.24;7.82;;;;;;;0.78;70.71;100016.28;1991036;81;20846;-76
2021/12/22 12:09:15;;;;;;;11.21;8.76;;;;;;;0.75;70.08;100005.91;1992442;81;20368;-75
2021/12/22 12:12:47;;;;;;;9.77;7.95;;;;;;;0.74;69.93;100004.19;1992205;81;20680;-76
2021/12/22 12:23:28;;;;;;;11.05;8.55;;;;;;;0.85;70.30;100008.94;1993454;81;21283;-76
2021/12/22 12:26:36;;;;;;;11.01;7.86;;;;;;;0.92;70.15;99999.88;1986573;81;20334;-76
2021/12/22 12:29:57;;;;;;;11.09;8.58;;;;;;;0.94;69.69;99987.16;1992891;81;20318;-76
2021/12/22 12:33:02;;;;;;;11.55;8.50;;;;;;;0.94;69.43;99990.59;1991383;78;23361;-76
2021/12/22 12:36:08;;;;;;;13.68;8.82;;;;;;;0.96;69.39;99985.53;1992824;81;20327;-76
2021/12/22 12:39:10;;;;;;;11.54;8.90;;;;;;;0.96;69.63;99983.84;1992379;81;20330;-76
2021/12/22 12:42:13;;;;;;;12.01;8.73;;;;;;;0.97;69.41;99982.16;1991805;81;20401;-76
2021/12/22 12:45:53;;;;;;;10.69;8.31;;;;;;;0.98;69.30;99983.91;1991911;81;20350;-76
2021/12/22 12:49:04;;;;;;;13.56;9.09;;;;;;;1.04;69.33;99979.94;1991714;81;20386;-76
2021/12/22 12:52:10;;;;;;;10.54;8.43;;;;;;;1.10;69.51;99979.34;1992255;81;20507;-76
2021/12/22 12:55:15;;;;;;;9.82;8.29;;;;;;;1.10;69.26;99982.75;1992211;81;20397;-76
2021/12/22 12:58:27;;;;;;;10.63;8.01;;;;;;;1.09;68.84;99975.91;1992509;81;20370;-76
2021/12/22 13:01:45;;;;;;;10.81;8.24;;;;;;;1.12;68.69;99970.91;1990765;79;20779;-76
2021/12/22 13:04:59;;;;;;;12.38;7.61;;;;;;;1.15;68.55;99971.03;1993142;81;20386;-76
2021/12/22 13:08:06;;;;;;;10.26;7.93;;;;;;;1.15;68.26;99973.59;1992212;81;20216;-76
2021/12/22 13:11:14;;;;;;;11.25;7.56;;;;;;;1.13;68.00;99959.88;1992531;81;20487;-76
2021/12/22 13:18:16;;;;;;;9.24;7.57;;;;;;;1.14;67.63;99946.28;1981076;78;22725;-76
2021/12/22 13:21:25;;;;;;;10.77;8.30;;;;;;;1.10;67.80;99943.53;1992259;81;20394;-76
2021/12/22 13:24:32;;;;;;;11.19;7.96;;;;;;;1.08;67.97;99940.03;1992443;81;20374;-76
2021/12/22 13:27:36;;;;;;;10.09;7.99;;;;;;;1.07;68.07;99934.03;1992726;81;20882;-76
2021/12/22 13:30:57;;;;;;;10.52;8.10;;;;;;;1.06;67.81;99933.97;1991437;78;21493;-76
2021/12/22 13:34:02;;;;;;;11.44;7.72;;;;;;;1.04;67.89;99939.00;1992788;81;20350;-76
2021/12/22 13:37:06;;;;;;;10.31;8.05;;;;;;;1.03;67.96;99938.94;1992172;81;20388;-76
2021/12/22 13:40:09;;;;;;;11.82;8.11;;;;;;;1.00;67.84;99933.72;1991917;81;20956;-76
2021/12/22 13:43:31;;;;;;;10.70;8.04;;;;;;;0.98;67.96;99932.78;1992430;81;20331;-76
2021/12/22 13:46:37;;;;;;;8.89;7.63;;;;;;;0.96;68.00;99936.97;1990226;79;22252;-76
2021/12/22 13:49:40;;;;;;;8.91;7.21;;;;;;;0.94;68.11;99934.34;1991750;81;20339;-75
2021/12/22 13:52:43;;;;;;;10.76;7.82;;;;;;;0.96;68.33;99934.41;1992900;81;20360;-76
2021/12/22 13:55:47;;;;;;;11.16;7.86;;;;;;;0.94;68.63;99929.22;1992696;81;20359;-76
2021/12/22 13:59:00;;;;;;;12.18;8.76;;;;;;;0.93;68.61;99917.25;1992050;81;20751;-76
2021/12/22 14:02:05;;;;;;;9.55;7.93;;;;;;;0.91;68.75;99921.44;1989912;78;21033;-75
2021/12/22 14:05:18;;;;;;;12.68;8.89;;;;;;;0.90;68.72;99912.03;1992457;81;20334;-76
2021/12/22 14:08:25;;;;;;;11.55;8.02;;;;;;;0.86;68.94;99910.13;1992804;81;20364;-75
2021/12/22 14:11:31;;;;;;;11.73;8.55;;;;;;;0.85;69.15;99908.38;1992241;81;20359;-76
2021/12/22 14:14:46;;;;;;;10.51;8.13;;;;;;;0.83;69.18;99912.56;1992541;81;20416;-76
2021/12/22 14:17:51;;;;;;;10.52;7.86;;;;;;;0.79;69.65;99921.78;1986756;79;22676;-76
2021/12/22 14:20:54;;;;;;;10.20;8.16;;;;;;;0.78;69.87;99914.03;1992895;81;20358;-76
2021/12/22 14:23:59;;;;;;;10.18;8.00;;;;;;;0.73;69.99;99920.66;1992304;81;20712;-76
2021/12/22 14:27:03;;;;;;;10.86;7.97;;;;;;;0.67;69.86;99921.22;1992872;81;20364;-75
2021/12/22 14:30:31;;;;;;;12.39;8.38;;;;;;;0.61;70.20;99923.53;1990837;81;20372;-76
2021/12/22 14:33:38;;;;;;;10.81;8.15;;;;;;;0.54;70.82;99919.84;1992512;81;20354;-75
2021/12/22 14:36:43;;;;;;;12.21;8.73;;;;;;;0.50;70.61;99915.38;1990800;81;21201;-75
2021/12/22 14:39:47;;;;;;;12.44;8.51;;;;;;;0.48;71.06;99919.56;1992742;81;21171;-76
2021/12/22 14:43:03;;;;;;;11.94;8.76;;;;;;;0.47;71.39;99907.59;1992945;81;20339;-76
2021/12/22 14:46:09;;;;;;;10.96;8.66;;;;;;;0.46;71.45;99910.97;1991182;78;22347;-76
2021/12/22 14:49:18;;;;;;;12.27;9.20;;;;;;;0.45;71.53;99908.34;1992024;81;20353;-76